Ana Sayfa
METAR-TAF:

METAR-TAF

Havaalanları :

Ambon, Endonezya

Enlem: 03-42S, Boylam: 128-05E, yükseklik: 12 m

Güncel hava durumu gözlemi

Rapor saat 05:00 UTC de 15 saat ve 29 dakika önce yapıldı.
Rüzgar değişken yönden 3 kt
Sıcaklık 25°C
Nem 89%
Basınç 1009 hPa
Görüş mesafesi: 7000 m
1500 ft yükseklikte parçalı çok bulutlu
hafif yağmur

METAR: WAPP 170500Z VRB03KT 7000 -RA BKN015 25/23 Q1009 NOSIG

Saat: 05:29 (20:29 UTC)

Tahmin

Rapor saat 17:00 UTC de 3 saat ve 29 dakika önce yapıldı.
Ayın 17'si saat 18 UTC'den ayın 18'si saat 18 UTC'ye kadar geçerli Tahmin
Rüzgar güney/güneydoğudan 6 kt
Görüş mesafesi 10 km veya daha fazla
1700 ft yükseklikte parçalı çok bulutlu
Geçici
ayın 17'si saat 20 UTC'den ayın 17'si saat 24 UTC'ye kadar
Görüş mesafesi: 5000 m
yağmur

TAF: WAPP 171700Z 1718/1818 16006KT 9999 BKN017 TEMPO 1720/1724 5000 RA

4.000'den fazla havaalanı için hava durumu gözlemleri ve tahminleri (METAR ve TAF raporları).

Kullanılabilir istasyonlar harita üzerinde sarı ve kırmızı noktalarla gösterilir.

İstasyonun adını görmek için fareyi noktanın üzerinde gezdirin.

Sonrasında hava gözlem ve tahminlerini görmek için tıklayın.

Haritayı değiştirmek için: yaklaştırmak için siyah artı işaretli yeşil düğmeye ve uzaklaştırmak için de eksi işaretli düğmeye hızla tıklayın; bitişik haritalar için yeşil okları kullanın.


METAR-TAF: